sensor_id;sensor_type;location;lat;lon;timestamp;P1;durP1;ratioP1;P2;durP2;ratioP2
26951;SDS011;14507;52.418;13.398;2023-07-29T00:01:26;6.35;;;4.95;;
26951;SDS011;14507;52.418;13.398;2023-07-29T00:03:52;8.18;;;5.03;;
26951;SDS011;14507;52.418;13.398;2023-07-29T00:06:18;8.43;;;5.68;;
26951;SDS011;14507;52.418;13.398;2023-07-29T00:08:43;8.73;;;4.90;;
26951;SDS011;14507;52.418;13.398;2023-07-29T00:11:09;6.85;;;4.97;;
26951;SDS011;14507;52.418;13.398;2023-07-29T00:13:34;8.48;;;4.95;;
26951;SDS011;14507;52.418;13.398;2023-07-29T00:16:00;6.85;;;4.93;;
26951;SDS011;14507;52.418;13.398;2023-07-29T00:18:26;10.02;;;5.63;;
26951;SDS011;14507;52.418;13.398;2023-07-29T00:20:52;7.82;;;5.28;;
26951;SDS011;14507;52.418;13.398;2023-07-29T00:23:18;7.57;;;5.15;;
26951;SDS011;14507;52.418;13.398;2023-07-29T00:25:44;7.97;;;5.47;;
26951;SDS011;14507;52.418;13.398;2023-07-29T00:28:11;5.70;;;4.63;;
26951;SDS011;14507;52.418;13.398;2023-07-29T00:30:37;7.67;;;5.27;;
26951;SDS011;14507;52.418;13.398;2023-07-29T00:33:03;7.25;;;5.20;;
26951;SDS011;14507;52.418;13.398;2023-07-29T00:35:28;7.07;;;4.70;;
26951;SDS011;14507;52.418;13.398;2023-07-29T00:37:54;6.82;;;4.95;;
26951;SDS011;14507;52.418;13.398;2023-07-29T00:40:20;10.20;;;5.40;;
26951;SDS011;14507;52.418;13.398;2023-07-29T00:42:47;7.97;;;5.50;;
26951;SDS011;14507;52.418;13.398;2023-07-29T00:45:14;6.47;;;4.93;;
26951;SDS011;14507;52.418;13.398;2023-07-29T00:47:39;6.25;;;4.90;;
26951;SDS011;14507;52.418;13.398;2023-07-29T00:50:07;8.07;;;4.70;;
26951;SDS011;14507;52.418;13.398;2023-07-29T00:52:35;7.97;;;5.05;;
26951;SDS011;14507;52.418;13.398;2023-07-29T00:55:01;7.55;;;5.30;;
26951;SDS011;14507;52.418;13.398;2023-07-29T00:57:27;7.88;;;5.38;;
26951;SDS011;14507;52.418;13.398;2023-07-29T00:59:54;9.00;;;6.28;;
26951;SDS011;14507;52.418;13.398;2023-07-29T01:02:20;9.60;;;5.50;;
26951;SDS011;14507;52.418;13.398;2023-07-29T01:04:46;7.47;;;5.40;;
26951;SDS011;14507;52.418;13.398;2023-07-29T01:16:17;7.95;;;5.32;;
26951;SDS011;14507;52.418;13.398;2023-07-29T01:18:47;8.25;;;5.70;;
26951;SDS011;14507;52.418;13.398;2023-07-29T01:21:14;7.55;;;6.10;;
26951;SDS011;14507;52.418;13.398;2023-07-29T01:23:42;7.70;;;5.75;;
26951;SDS011;14507;52.418;13.398;2023-07-29T01:26:07;8.18;;;5.93;;
26951;SDS011;14507;52.418;13.398;2023-07-29T01:28:33;8.07;;;5.38;;
26951;SDS011;14507;52.418;13.398;2023-07-29T01:31:03;9.77;;;6.43;;
26951;SDS011;14507;52.418;13.398;2023-07-29T01:33:57;8.50;;;5.40;;
26951;SDS011;14507;52.418;13.398;2023-07-29T01:36:27;7.18;;;5.80;;
26951;SDS011;14507;52.418;13.398;2023-07-29T01:38:55;7.80;;;5.60;;
26951;SDS011;14507;52.418;13.398;2023-07-29T01:41:22;8.65;;;6.03;;
26951;SDS011;14507;52.418;13.398;2023-07-29T01:43:49;7.25;;;5.93;;
26951;SDS011;14507;52.418;13.398;2023-07-29T01:46:15;6.72;;;5.63;;
26951;SDS011;14507;52.418;13.398;2023-07-29T01:48:41;10.45;;;6.10;;
26951;SDS011;14507;52.418;13.398;2023-07-29T01:51:07;6.82;;;5.25;;
26951;SDS011;14507;52.418;13.398;2023-07-29T01:53:35;6.40;;;5.05;;
26951;SDS011;14507;52.418;13.398;2023-07-29T01:56:01;7.53;;;5.90;;
26951;SDS011;14507;52.418;13.398;2023-07-29T01:58:27;7.88;;;5.13;;
26951;SDS011;14507;52.418;13.398;2023-07-29T02:00:53;8.02;;;6.03;;
26951;SDS011;14507;52.418;13.398;2023-07-29T02:03:18;6.53;;;5.05;;
26951;SDS011;14507;52.418;13.398;2023-07-29T02:05:44;8.25;;;5.50;;
26951;SDS011;14507;52.418;13.398;2023-07-29T02:08:10;8.02;;;4.75;;
26951;SDS011;14507;52.418;13.398;2023-07-29T02:10:35;7.22;;;5.07;;
26951;SDS011;14507;52.418;13.398;2023-07-29T02:13:01;11.27;;;6.00;;
26951;SDS011;14507;52.418;13.398;2023-07-29T02:15:28;7.40;;;5.20;;
26951;SDS011;14507;52.418;13.398;2023-07-29T02:17:53;7.15;;;5.30;;
26951;SDS011;14507;52.418;13.398;2023-07-29T02:20:19;6.95;;;5.20;;
26951;SDS011;14507;52.418;13.398;2023-07-29T02:22:45;7.30;;;5.60;;
26951;SDS011;14507;52.418;13.398;2023-07-29T02:25:10;6.30;;;4.80;;
26951;SDS011;14507;52.418;13.398;2023-07-29T02:27:36;6.80;;;5.05;;
26951;SDS011;14507;52.418;13.398;2023-07-29T02:30:02;6.50;;;5.38;;
26951;SDS011;14507;52.418;13.398;2023-07-29T02:32:28;5.85;;;4.95;;
26951;SDS011;14507;52.418;13.398;2023-07-29T02:34:54;8.13;;;5.15;;
26951;SDS011;14507;52.418;13.398;2023-07-29T02:37:20;6.50;;;4.60;;
26951;SDS011;14507;52.418;13.398;2023-07-29T02:39:45;8.45;;;5.47;;
26951;SDS011;14507;52.418;13.398;2023-07-29T02:42:11;8.30;;;5.85;;
26951;SDS011;14507;52.418;13.398;2023-07-29T02:44:37;7.93;;;5.95;;
26951;SDS011;14507;52.418;13.398;2023-07-29T02:47:03;7.15;;;5.20;;
26951;SDS011;14507;52.418;13.398;2023-07-29T02:49:28;8.23;;;5.65;;
26951;SDS011;14507;52.418;13.398;2023-07-29T02:51:54;6.60;;;5.22;;
26951;SDS011;14507;52.418;13.398;2023-07-29T02:54:19;6.70;;;5.35;;
26951;SDS011;14507;52.418;13.398;2023-07-29T02:56:45;7.65;;;5.72;;
26951;SDS011;14507;52.418;13.398;2023-07-29T02:59:11;7.47;;;4.93;;
26951;SDS011;14507;52.418;13.398;2023-07-29T03:01:36;8.93;;;5.32;;
26951;SDS011;14507;52.418;13.398;2023-07-29T03:04:02;8.90;;;6.07;;
26951;SDS011;14507;52.418;13.398;2023-07-29T03:06:28;9.48;;;6.38;;
26951;SDS011;14507;52.418;13.398;2023-07-29T03:08:53;7.05;;;5.28;;
26951;SDS011;14507;52.418;13.398;2023-07-29T03:11:19;6.93;;;5.28;;
26951;SDS011;14507;52.418;13.398;2023-07-29T03:13:45;6.60;;;5.25;;
26951;SDS011;14507;52.418;13.398;2023-07-29T03:16:12;7.90;;;5.72;;
26951;SDS011;14507;52.418;13.398;2023-07-29T03:18:42;7.03;;;5.45;;
26951;SDS011;14507;52.418;13.398;2023-07-29T03:21:08;6.57;;;5.43;;
26951;SDS011;14507;52.418;13.398;2023-07-29T03:23:35;10.35;;;6.50;;
26951;SDS011;14507;52.418;13.398;2023-07-29T03:26:01;7.63;;;6.15;;
26951;SDS011;14507;52.418;13.398;2023-07-29T03:28:32;7.88;;;5.80;;
26951;SDS011;14507;52.418;13.398;2023-07-29T03:30:58;7.38;;;5.70;;
26951;SDS011;14507;52.418;13.398;2023-07-29T03:33:24;11.95;;;7.70;;
26951;SDS011;14507;52.418;13.398;2023-07-29T03:35:50;8.43;;;5.80;;
26951;SDS011;14507;52.418;13.398;2023-07-29T03:38:16;8.85;;;5.68;;
26951;SDS011;14507;52.418;13.398;2023-07-29T03:40:42;7.38;;;6.00;;
26951;SDS011;14507;52.418;13.398;2023-07-29T03:43:08;7.75;;;5.70;;
26951;SDS011;14507;52.418;13.398;2023-07-29T03:45:34;8.35;;;5.88;;
26951;SDS011;14507;52.418;13.398;2023-07-29T03:48:01;7.63;;;6.13;;
26951;SDS011;14507;52.418;13.398;2023-07-29T03:50:27;8.38;;;6.25;;
26951;SDS011;14507;52.418;13.398;2023-07-29T03:52:53;8.15;;;5.90;;
26951;SDS011;14507;52.418;13.398;2023-07-29T03:55:19;7.57;;;5.15;;
26951;SDS011;14507;52.418;13.398;2023-07-29T03:57:45;7.85;;;5.85;;
26951;SDS011;14507;52.418;13.398;2023-07-29T04:00:11;9.15;;;6.57;;
26951;SDS011;14507;52.418;13.398;2023-07-29T04:02:37;9.02;;;5.70;;
26951;SDS011;14507;52.418;13.398;2023-07-29T04:05:03;8.23;;;6.22;;
26951;SDS011;14507;52.418;13.398;2023-07-29T04:07:30;7.25;;;5.45;;
26951;SDS011;14507;52.418;13.398;2023-07-29T04:09:56;8.95;;;6.20;;
26951;SDS011;14507;52.418;13.398;2023-07-29T04:12:22;8.50;;;6.22;;
26951;SDS011;14507;52.418;13.398;2023-07-29T04:14:48;8.40;;;6.35;;
26951;SDS011;14507;52.418;13.398;2023-07-29T04:17:14;7.43;;;5.65;;
26951;SDS011;14507;52.418;13.398;2023-07-29T04:19:39;7.05;;;5.45;;
26951;SDS011;14507;52.418;13.398;2023-07-29T04:22:05;6.88;;;5.45;;
26951;SDS011;14507;52.418;13.398;2023-07-29T04:24:31;6.32;;;5.00;;
26951;SDS011;14507;52.418;13.398;2023-07-29T04:26:56;10.10;;;5.72;;
26951;SDS011;14507;52.418;13.398;2023-07-29T04:29:22;6.80;;;5.00;;
26951;SDS011;14507;52.418;13.398;2023-07-29T04:31:48;6.55;;;5.13;;
26951;SDS011;14507;52.418;13.398;2023-07-29T04:34:20;7.88;;;5.85;;
26951;SDS011;14507;52.418;13.398;2023-07-29T04:36:46;7.15;;;5.43;;
26951;SDS011;14507;52.418;13.398;2023-07-29T04:39:14;8.15;;;5.65;;
26951;SDS011;14507;52.418;13.398;2023-07-29T04:41:41;7.45;;;5.70;;
26951;SDS011;14507;52.418;13.398;2023-07-29T04:44:06;10.43;;;5.75;;
26951;SDS011;14507;52.418;13.398;2023-07-29T04:46:32;9.68;;;6.43;;
26951;SDS011;14507;52.418;13.398;2023-07-29T04:48:58;7.70;;;5.50;;
26951;SDS011;14507;52.418;13.398;2023-07-29T04:51:24;8.40;;;6.65;;
26951;SDS011;14507;52.418;13.398;2023-07-29T04:53:50;8.02;;;6.30;;
26951;SDS011;14507;52.418;13.398;2023-07-29T04:56:15;7.45;;;5.90;;
26951;SDS011;14507;52.418;13.398;2023-07-29T04:58:41;11.65;;;5.97;;
26951;SDS011;14507;52.418;13.398;2023-07-29T05:01:07;8.13;;;5.47;;
26951;SDS011;14507;52.418;13.398;2023-07-29T05:03:32;7.93;;;6.20;;
26951;SDS011;14507;52.418;13.398;2023-07-29T05:05:58;9.15;;;5.93;;
26951;SDS011;14507;52.418;13.398;2023-07-29T05:08:25;6.70;;;5.28;;
26951;SDS011;14507;52.418;13.398;2023-07-29T05:10:51;8.10;;;5.47;;
26951;SDS011;14507;52.418;13.398;2023-07-29T05:13:18;7.80;;;6.07;;
26951;SDS011;14507;52.418;13.398;2023-07-29T05:15:44;6.72;;;5.82;;
26951;SDS011;14507;52.418;13.398;2023-07-29T05:18:09;10.85;;;6.57;;
26951;SDS011;14507;52.418;13.398;2023-07-29T05:20:35;9.38;;;5.82;;
26951;SDS011;14507;52.418;13.398;2023-07-29T05:23:00;10.20;;;6.00;;
26951;SDS011;14507;52.418;13.398;2023-07-29T05:25:26;7.97;;;5.22;;
26951;SDS011;14507;52.418;13.398;2023-07-29T05:27:52;10.95;;;5.43;;
26951;SDS011;14507;52.418;13.398;2023-07-29T05:30:18;5.57;;;4.47;;
26951;SDS011;14507;52.418;13.398;2023-07-29T05:32:43;8.55;;;4.95;;
26951;SDS011;14507;52.418;13.398;2023-07-29T05:35:10;6.20;;;4.50;;
26951;SDS011;14507;52.418;13.398;2023-07-29T05:37:39;5.63;;;4.82;;
26951;SDS011;14507;52.418;13.398;2023-07-29T05:40:05;5.93;;;4.30;;
26951;SDS011;14507;52.418;13.398;2023-07-29T05:42:32;7.17;;;4.63;;
26951;SDS011;14507;52.418;13.398;2023-07-29T05:44:58;9.80;;;5.22;;
26951;SDS011;14507;52.418;13.398;2023-07-29T05:47:23;6.13;;;4.80;;
26951;SDS011;14507;52.418;13.398;2023-07-29T05:49:49;6.38;;;4.55;;
26951;SDS011;14507;52.418;13.398;2023-07-29T05:52:15;8.43;;;5.30;;
26951;SDS011;14507;52.418;13.398;2023-07-29T05:54:41;8.07;;;4.70;;
26951;SDS011;14507;52.418;13.398;2023-07-29T05:57:08;5.00;;;3.90;;
26951;SDS011;14507;52.418;13.398;2023-07-29T05:59:35;8.43;;;5.05;;
26951;SDS011;14507;52.418;13.398;2023-07-29T06:02:00;7.25;;;4.55;;
26951;SDS011;14507;52.418;13.398;2023-07-29T06:04:26;5.32;;;4.45;;
26951;SDS011;14507;52.418;13.398;2023-07-29T06:06:52;5.05;;;4.05;;
26951;SDS011;14507;52.418;13.398;2023-07-29T06:09:18;5.07;;;4.03;;
26951;SDS011;14507;52.418;13.398;2023-07-29T06:11:46;4.78;;;3.53;;
26951;SDS011;14507;52.418;13.398;2023-07-29T06:14:12;4.53;;;3.30;;
26951;SDS011;14507;52.418;13.398;2023-07-29T06:16:37;7.82;;;3.78;;
26951;SDS011;14507;52.418;13.398;2023-07-29T06:19:03;5.57;;;3.28;;
26951;SDS011;14507;52.418;13.398;2023-07-29T06:21:29;5.25;;;3.60;;
26951;SDS011;14507;52.418;13.398;2023-07-29T06:23:54;6.70;;;3.50;;
26951;SDS011;14507;52.418;13.398;2023-07-29T06:26:20;5.78;;;3.22;;
26951;SDS011;14507;52.418;13.398;2023-07-29T06:28:45;3.85;;;2.67;;
26951;SDS011;14507;52.418;13.398;2023-07-29T06:31:11;5.82;;;2.95;;
26951;SDS011;14507;52.418;13.398;2023-07-29T06:33:37;3.83;;;2.55;;
26951;SDS011;14507;52.418;13.398;2023-07-29T06:36:02;4.65;;;2.63;;
26951;SDS011;14507;52.418;13.398;2023-07-29T06:38:29;3.20;;;2.35;;
26951;SDS011;14507;52.418;13.398;2023-07-29T06:40:55;3.85;;;2.38;;
26951;SDS011;14507;52.418;13.398;2023-07-29T06:43:21;3.28;;;2.13;;
26951;SDS011;14507;52.418;13.398;2023-07-29T06:45:46;4.07;;;2.15;;
26951;SDS011;14507;52.418;13.398;2023-07-29T06:48:12;7.57;;;2.50;;
26951;SDS011;14507;52.418;13.398;2023-07-29T06:50:38;3.92;;;2.28;;
26951;SDS011;14507;52.418;13.398;2023-07-29T06:53:03;2.72;;;2.20;;
26951;SDS011;14507;52.418;13.398;2023-07-29T06:55:29;3.25;;;2.30;;
26951;SDS011;14507;52.418;13.398;2023-07-29T06:57:54;4.80;;;2.63;;
26951;SDS011;14507;52.418;13.398;2023-07-29T07:00:20;5.50;;;2.70;;
26951;SDS011;14507;52.418;13.398;2023-07-29T07:02:46;4.50;;;2.50;;
26951;SDS011;14507;52.418;13.398;2023-07-29T07:05:11;4.82;;;2.75;;
26951;SDS011;14507;52.418;13.398;2023-07-29T07:07:37;6.53;;;2.55;;
26951;SDS011;14507;52.418;13.398;2023-07-29T07:10:03;5.85;;;2.50;;
26951;SDS011;14507;52.418;13.398;2023-07-29T07:12:29;6.07;;;2.70;;
26951;SDS011;14507;52.418;13.398;2023-07-29T07:14:54;5.47;;;2.53;;
26951;SDS011;14507;52.418;13.398;2023-07-29T07:17:20;7.13;;;2.50;;
26951;SDS011;14507;52.418;13.398;2023-07-29T07:19:46;4.15;;;2.38;;
26951;SDS011;14507;52.418;13.398;2023-07-29T07:22:14;3.95;;;2.33;;
26951;SDS011;14507;52.418;13.398;2023-07-29T07:24:41;6.25;;;2.33;;
26951;SDS011;14507;52.418;13.398;2023-07-29T07:27:06;3.78;;;2.33;;
26951;SDS011;14507;52.418;13.398;2023-07-29T07:29:32;3.67;;;2.15;;
26951;SDS011;14507;52.418;13.398;2023-07-29T07:31:58;2.80;;;2.03;;
26951;SDS011;14507;52.418;13.398;2023-07-29T07:34:24;3.80;;;2.53;;
26951;SDS011;14507;52.418;13.398;2023-07-29T07:36:49;3.90;;;2.38;;
26951;SDS011;14507;52.418;13.398;2023-07-29T07:39:15;2.63;;;1.88;;
26951;SDS011;14507;52.418;13.398;2023-07-29T07:41:41;5.97;;;2.35;;
26951;SDS011;14507;52.418;13.398;2023-07-29T07:44:07;3.72;;;2.10;;
26951;SDS011;14507;52.418;13.398;2023-07-29T07:46:33;3.13;;;2.30;;
26951;SDS011;14507;52.418;13.398;2023-07-29T07:48:59;4.45;;;2.50;;
26951;SDS011;14507;52.418;13.398;2023-07-29T07:51:24;4.95;;;2.20;;
26951;SDS011;14507;52.418;13.398;2023-07-29T07:53:50;3.17;;;2.10;;
26951;SDS011;14507;52.418;13.398;2023-07-29T07:56:15;3.03;;;2.33;;
26951;SDS011;14507;52.418;13.398;2023-07-29T07:58:41;6.45;;;2.20;;
26951;SDS011;14507;52.418;13.398;2023-07-29T08:01:07;3.15;;;2.45;;
26951;SDS011;14507;52.418;13.398;2023-07-29T08:03:34;3.37;;;2.47;;
26951;SDS011;14507;52.418;13.398;2023-07-29T08:06:00;4.05;;;2.00;;
26951;SDS011;14507;52.418;13.398;2023-07-29T08:08:27;3.67;;;2.20;;
26951;SDS011;14507;52.418;13.398;2023-07-29T08:10:53;4.22;;;1.90;;
26951;SDS011;14507;52.418;13.398;2023-07-29T08:13:20;4.57;;;2.47;;
26951;SDS011;14507;52.418;13.398;2023-07-29T08:15:49;3.20;;;2.17;;
26951;SDS011;14507;52.418;13.398;2023-07-29T08:18:16;3.00;;;2.13;;
26951;SDS011;14507;52.418;13.398;2023-07-29T08:20:52;3.08;;;2.17;;
26951;SDS011;14507;52.418;13.398;2023-07-29T08:23:18;3.55;;;2.20;;
26951;SDS011;14507;52.418;13.398;2023-07-29T08:25:44;3.78;;;2.00;;
26951;SDS011;14507;52.418;13.398;2023-07-29T08:28:10;3.08;;;1.90;;
26951;SDS011;14507;52.418;13.398;2023-07-29T08:30:36;4.25;;;1.75;;
26951;SDS011;14507;52.418;13.398;2023-07-29T08:33:02;4.15;;;2.10;;
26951;SDS011;14507;52.418;13.398;2023-07-29T08:35:27;4.90;;;1.95;;
26951;SDS011;14507;52.418;13.398;2023-07-29T08:37:53;3.92;;;1.80;;
26951;SDS011;14507;52.418;13.398;2023-07-29T08:40:19;2.83;;;2.00;;
26951;SDS011;14507;52.418;13.398;2023-07-29T08:42:53;2.08;;;1.50;;
26951;SDS011;14507;52.418;13.398;2023-07-29T08:45:22;5.82;;;2.60;;
26951;SDS011;14507;52.418;13.398;2023-07-29T08:47:49;1.90;;;1.50;;
26951;SDS011;14507;52.418;13.398;2023-07-29T08:50:19;2.15;;;1.80;;
26951;SDS011;14507;52.418;13.398;2023-07-29T08:52:45;2.25;;;1.75;;
26951;SDS011;14507;52.418;13.398;2023-07-29T08:55:12;2.88;;;2.03;;
26951;SDS011;14507;52.418;13.398;2023-07-29T08:57:37;2.40;;;1.70;;
26951;SDS011;14507;52.418;13.398;2023-07-29T09:00:06;6.97;;;1.88;;
26951;SDS011;14507;52.418;13.398;2023-07-29T09:02:32;2.67;;;1.70;;
26951;SDS011;14507;52.418;13.398;2023-07-29T09:04:57;2.47;;;1.90;;
26951;SDS011;14507;52.418;13.398;2023-07-29T09:07:23;3.05;;;2.00;;
26951;SDS011;14507;52.418;13.398;2023-07-29T09:09:50;2.38;;;1.60;;
26951;SDS011;14507;52.418;13.398;2023-07-29T09:12:15;3.17;;;1.90;;
26951;SDS011;14507;52.418;13.398;2023-07-29T09:14:41;2.75;;;1.55;;
26951;SDS011;14507;52.418;13.398;2023-07-29T09:17:07;3.33;;;1.88;;
26951;SDS011;14507;52.418;13.398;2023-07-29T09:19:34;2.33;;;1.40;;
26951;SDS011;14507;52.418;13.398;2023-07-29T09:22:00;3.10;;;1.85;;
26951;SDS011;14507;52.418;13.398;2023-07-29T09:24:26;5.20;;;1.92;;
26951;SDS011;14507;52.418;13.398;2023-07-29T09:26:54;3.15;;;1.83;;
26951;SDS011;14507;52.418;13.398;2023-07-29T09:29:23;3.38;;;1.73;;
26951;SDS011;14507;52.418;13.398;2023-07-29T09:31:52;2.25;;;1.75;;
26951;SDS011;14507;52.418;13.398;2023-07-29T09:34:18;3.42;;;1.92;;
26951;SDS011;14507;52.418;13.398;2023-07-29T09:36:44;4.35;;;1.55;;
26951;SDS011;14507;52.418;13.398;2023-07-29T09:39:12;2.25;;;1.50;;
26951;SDS011;14507;52.418;13.398;2023-07-29T09:41:38;2.40;;;1.58;;
26951;SDS011;14507;52.418;13.398;2023-07-29T09:44:04;4.75;;;1.88;;
26951;SDS011;14507;52.418;13.398;2023-07-29T09:49:02;2.30;;;1.45;;
26951;SDS011;14507;52.418;13.398;2023-07-29T09:51:28;3.25;;;1.58;;
26951;SDS011;14507;52.418;13.398;2023-07-29T09:53:54;2.35;;;1.33;;
26951;SDS011;14507;52.418;13.398;2023-07-29T09:56:29;5.30;;;1.60;;
26951;SDS011;14507;52.418;13.398;2023-07-29T09:58:56;2.17;;;1.40;;
26951;SDS011;14507;52.418;13.398;2023-07-29T10:01:22;2.42;;;1.40;;
26951;SDS011;14507;52.418;13.398;2023-07-29T10:03:48;2.35;;;1.55;;
26951;SDS011;14507;52.418;13.398;2023-07-29T10:06:15;2.47;;;1.50;;
26951;SDS011;14507;52.418;13.398;2023-07-29T10:08:41;3.72;;;1.40;;
26951;SDS011;14507;52.418;13.398;2023-07-29T10:11:08;2.42;;;1.60;;
26951;SDS011;14507;52.418;13.398;2023-07-29T10:13:34;3.25;;;1.50;;
26951;SDS011;14507;52.418;13.398;2023-07-29T10:16:01;3.33;;;1.35;;
26951;SDS011;14507;52.418;13.398;2023-07-29T10:18:28;1.67;;;1.17;;
26951;SDS011;14507;52.418;13.398;2023-07-29T10:20:56;10.60;;;1.30;;
26951;SDS011;14507;52.418;13.398;2023-07-29T10:23:24;2.03;;;1.30;;
26951;SDS011;14507;52.418;13.398;2023-07-29T10:26:04;2.08;;;1.30;;
26951;SDS011;14507;52.418;13.398;2023-07-29T10:28:31;1.95;;;1.23;;
26951;SDS011;14507;52.418;13.398;2023-07-29T10:30:58;1.85;;;1.25;;
26951;SDS011;14507;52.418;13.398;2023-07-29T10:33:27;2.17;;;1.40;;
26951;SDS011;14507;52.418;13.398;2023-07-29T10:35:53;4.25;;;1.10;;
26951;SDS011;14507;52.418;13.398;2023-07-29T10:38:23;2.28;;;1.00;;
26951;SDS011;14507;52.418;13.398;2023-07-29T10:40:51;2.10;;;1.23;;
26951;SDS011;14507;52.418;13.398;2023-07-29T10:43:25;3.25;;;1.15;;
26951;SDS011;14507;52.418;13.398;2023-07-29T10:45:54;1.55;;;1.08;;
26951;SDS011;14507;52.418;13.398;2023-07-29T10:54:01;2.15;;;1.08;;
26951;SDS011;14507;52.418;13.398;2023-07-29T10:56:35;3.13;;;1.30;;
26951;SDS011;14507;52.418;13.398;2023-07-29T11:01:42;4.35;;;1.33;;
26951;SDS011;14507;52.418;13.398;2023-07-29T11:09:41;2.53;;;1.48;;
26951;SDS011;14507;52.418;13.398;2023-07-29T11:15:26;14.32;;;3.38;;
26951;SDS011;14507;52.418;13.398;2023-07-29T11:17:53;11.43;;;3.20;;
26951;SDS011;14507;52.418;13.398;2023-07-29T11:20:24;9.63;;;2.30;;
26951;SDS011;14507;52.418;13.398;2023-07-29T11:22:54;5.88;;;2.17;;
26951;SDS011;14507;52.418;13.398;2023-07-29T11:25:21;3.87;;;1.70;;
26951;SDS011;14507;52.418;13.398;2023-07-29T11:27:48;6.35;;;2.03;;
26951;SDS011;14507;52.418;13.398;2023-07-29T11:30:15;7.45;;;1.88;;
26951;SDS011;14507;52.418;13.398;2023-07-29T11:32:42;7.40;;;4.05;;
26951;SDS011;14507;52.418;13.398;2023-07-29T11:35:10;7.80;;;2.58;;
26951;SDS011;14507;52.418;13.398;2023-07-29T11:37:38;8.68;;;2.33;;
26951;SDS011;14507;52.418;13.398;2023-07-29T11:40:04;6.45;;;2.15;;
26951;SDS011;14507;52.418;13.398;2023-07-29T11:42:32;3.45;;;1.50;;
26951;SDS011;14507;52.418;13.398;2023-07-29T11:44:59;4.78;;;1.50;;
26951;SDS011;14507;52.418;13.398;2023-07-29T11:47:25;3.88;;;1.50;;
26951;SDS011;14507;52.418;13.398;2023-07-29T11:49:51;4.15;;;1.50;;
26951;SDS011;14507;52.418;13.398;2023-07-29T11:52:17;5.97;;;1.80;;
26951;SDS011;14507;52.418;13.398;2023-07-29T11:54:44;4.05;;;1.83;;
26951;SDS011;14507;52.418;13.398;2023-07-29T11:57:10;4.50;;;1.73;;
26951;SDS011;14507;52.418;13.398;2023-07-29T11:59:37;2.95;;;1.52;;
26951;SDS011;14507;52.418;13.398;2023-07-29T12:02:05;5.18;;;1.83;;
26951;SDS011;14507;52.418;13.398;2023-07-29T12:07:18;4.00;;;2.00;;
26951;SDS011;14507;52.418;13.398;2023-07-29T12:09:44;3.40;;;1.67;;
26951;SDS011;14507;52.418;13.398;2023-07-29T12:12:11;2.92;;;1.58;;
26951;SDS011;14507;52.418;13.398;2023-07-29T12:14:37;6.18;;;2.00;;
26951;SDS011;14507;52.418;13.398;2023-07-29T12:17:03;4.18;;;1.85;;
26951;SDS011;14507;52.418;13.398;2023-07-29T12:19:33;4.32;;;1.85;;
26951;SDS011;14507;52.418;13.398;2023-07-29T12:22:01;3.90;;;2.00;;
26951;SDS011;14507;52.418;13.398;2023-07-29T12:24:31;3.90;;;1.83;;
26951;SDS011;14507;52.418;13.398;2023-07-29T12:26:58;3.78;;;1.52;;
26951;SDS011;14507;52.418;13.398;2023-07-29T12:29:24;7.80;;;1.73;;
26951;SDS011;14507;52.418;13.398;2023-07-29T12:31:57;4.50;;;1.80;;
26951;SDS011;14507;52.418;13.398;2023-07-29T12:34:26;3.50;;;1.50;;
26951;SDS011;14507;52.418;13.398;2023-07-29T12:36:55;4.20;;;1.70;;
26951;SDS011;14507;52.418;13.398;2023-07-29T12:39:24;3.72;;;1.65;;
26951;SDS011;14507;52.418;13.398;2023-07-29T12:41:52;3.28;;;1.90;;
26951;SDS011;14507;52.418;13.398;2023-07-29T12:44:19;2.70;;;1.60;;
26951;SDS011;14507;52.418;13.398;2023-07-29T12:46:44;4.28;;;2.20;;
26951;SDS011;14507;52.418;13.398;2023-07-29T12:49:10;4.00;;;2.05;;
26951;SDS011;14507;52.418;13.398;2023-07-29T12:51:36;3.50;;;2.20;;
26951;SDS011;14507;52.418;13.398;2023-07-29T12:54:03;4.25;;;2.40;;
26951;SDS011;14507;52.418;13.398;2023-07-29T12:56:29;5.47;;;2.38;;
26951;SDS011;14507;52.418;13.398;2023-07-29T12:58:59;8.88;;;2.53;;
26951;SDS011;14507;52.418;13.398;2023-07-29T13:01:25;3.78;;;1.75;;
26951;SDS011;14507;52.418;13.398;2023-07-29T13:03:51;7.32;;;2.00;;
26951;SDS011;14507;52.418;13.398;2023-07-29T13:06:17;3.67;;;1.50;;
26951;SDS011;14507;52.418;13.398;2023-07-29T13:08:43;4.80;;;2.17;;
26951;SDS011;14507;52.418;13.398;2023-07-29T13:11:10;4.65;;;2.10;;
26951;SDS011;14507;52.418;13.398;2023-07-29T13:13:36;5.22;;;1.80;;
26951;SDS011;14507;52.418;13.398;2023-07-29T13:16:02;2.92;;;1.70;;
26951;SDS011;14507;52.418;13.398;2023-07-29T13:18:27;2.97;;;1.60;;
26951;SDS011;14507;52.418;13.398;2023-07-29T13:20:53;6.05;;;1.67;;
26951;SDS011;14507;52.418;13.398;2023-07-29T13:23:19;3.72;;;1.60;;
26951;SDS011;14507;52.418;13.398;2023-07-29T13:25:45;2.42;;;1.42;;
26951;SDS011;14507;52.418;13.398;2023-07-29T13:28:11;2.90;;;1.30;;
26951;SDS011;14507;52.418;13.398;2023-07-29T13:30:38;2.43;;;1.30;;
26951;SDS011;14507;52.418;13.398;2023-07-29T13:33:04;3.30;;;1.42;;
26951;SDS011;14507;52.418;13.398;2023-07-29T13:35:30;2.00;;;1.23;;
26951;SDS011;14507;52.418;13.398;2023-07-29T13:37:56;4.70;;;1.67;;
26951;SDS011;14507;52.418;13.398;2023-07-29T13:40:22;5.28;;;1.90;;
26951;SDS011;14507;52.418;13.398;2023-07-29T13:42:47;3.00;;;1.67;;
26951;SDS011;14507;52.418;13.398;2023-07-29T13:45:13;5.97;;;1.92;;
26951;SDS011;14507;52.418;13.398;2023-07-29T13:47:38;3.17;;;1.67;;
26951;SDS011;14507;52.418;13.398;2023-07-29T13:50:04;2.25;;;1.50;;
26951;SDS011;14507;52.418;13.398;2023-07-29T13:52:32;2.03;;;1.25;;
26951;SDS011;14507;52.418;13.398;2023-07-29T13:54:58;3.28;;;1.35;;
26951;SDS011;14507;52.418;13.398;2023-07-29T13:57:23;2.17;;;1.27;;
26951;SDS011;14507;52.418;13.398;2023-07-29T13:59:49;3.67;;;1.30;;
26951;SDS011;14507;52.418;13.398;2023-07-29T14:02:15;1.58;;;1.17;;
26951;SDS011;14507;52.418;13.398;2023-07-29T14:04:40;3.55;;;1.02;;
26951;SDS011;14507;52.418;13.398;2023-07-29T14:07:06;2.30;;;1.20;;
26951;SDS011;14507;52.418;13.398;2023-07-29T14:09:31;3.22;;;1.30;;
26951;SDS011;14507;52.418;13.398;2023-07-29T14:11:57;2.28;;;1.35;;
26951;SDS011;14507;52.418;13.398;2023-07-29T14:14:23;2.33;;;1.33;;
26951;SDS011;14507;52.418;13.398;2023-07-29T14:16:48;2.50;;;1.13;;
26951;SDS011;14507;52.418;13.398;2023-07-29T14:19:14;2.47;;;1.35;;
26951;SDS011;14507;52.418;13.398;2023-07-29T14:21:40;1.58;;;0.98;;
26951;SDS011;14507;52.418;13.398;2023-07-29T14:24:08;2.72;;;1.13;;
26951;SDS011;14507;52.418;13.398;2023-07-29T14:26:33;2.05;;;1.30;;
26951;SDS011;14507;52.418;13.398;2023-07-29T14:28:59;2.10;;;1.10;;
26951;SDS011;14507;52.418;13.398;2023-07-29T14:31:24;2.53;;;1.20;;
26951;SDS011;14507;52.418;13.398;2023-07-29T14:33:50;1.95;;;1.40;;
26951;SDS011;14507;52.418;13.398;2023-07-29T14:36:16;3.40;;;1.00;;
26951;SDS011;14507;52.418;13.398;2023-07-29T14:38:41;2.17;;;1.30;;
26951;SDS011;14507;52.418;13.398;2023-07-29T14:41:07;2.17;;;1.48;;
26951;SDS011;14507;52.418;13.398;2023-07-29T14:43:33;2.67;;;1.30;;
26951;SDS011;14507;52.418;13.398;2023-07-29T14:46:00;1.85;;;1.20;;
26951;SDS011;14507;52.418;13.398;2023-07-29T14:48:25;3.85;;;0.93;;
26951;SDS011;14507;52.418;13.398;2023-07-29T14:50:51;2.28;;;1.33;;
26951;SDS011;14507;52.418;13.398;2023-07-29T14:53:17;3.08;;;1.52;;
26951;SDS011;14507;52.418;13.398;2023-07-29T14:55:43;1.90;;;1.25;;
26951;SDS011;14507;52.418;13.398;2023-07-29T14:58:08;3.30;;;1.33;;
26951;SDS011;14507;52.418;13.398;2023-07-29T15:00:34;2.15;;;1.23;;